createdAt,value
2023-02-19T00:01:46.679Z,3.10
2023-02-19T00:04:14.689Z,3.85
2023-02-19T00:06:42.149Z,3.10
2023-02-19T00:09:12.481Z,4.63
2023-02-19T00:11:39.461Z,3.75
2023-02-19T00:14:10.540Z,3.17
2023-02-19T00:16:39.074Z,3.60
2023-02-19T00:19:07.709Z,3.20
2023-02-19T00:21:34.736Z,3.15
2023-02-19T00:24:07.225Z,5.45
2023-02-19T00:26:34.070Z,5.35
2023-02-19T00:29:01.042Z,3.08
2023-02-19T00:31:33.018Z,3.83
2023-02-19T00:34:03.812Z,2.70
2023-02-19T00:36:35.880Z,3.67
2023-02-19T00:39:03.459Z,3.50
2023-02-19T00:41:30.607Z,3.33
2023-02-19T00:44:05.582Z,3.55
2023-02-19T00:46:45.903Z,4.25
2023-02-19T00:49:21.317Z,2.90
2023-02-19T00:51:48.947Z,3.10
2023-02-19T00:54:15.866Z,3.05
2023-02-19T00:56:42.587Z,2.80
2023-02-19T00:59:09.633Z,3.75
2023-02-19T01:01:36.470Z,3.13
2023-02-19T01:04:06.177Z,3.00
2023-02-19T01:06:34.642Z,3.00
2023-02-19T01:09:01.812Z,3.20
2023-02-19T01:11:28.550Z,3.28
2023-02-19T01:14:00.108Z,2.70
2023-02-19T01:16:27.573Z,2.92
2023-02-19T01:18:54.420Z,3.88
2023-02-19T01:21:22.703Z,3.13
2023-02-19T01:23:49.944Z,3.60
2023-02-19T01:26:21.600Z,3.63
2023-02-19T01:28:48.592Z,3.15
2023-02-19T01:31:17.325Z,4.30
2023-02-19T01:33:52.005Z,3.50
2023-02-19T01:36:18.975Z,6.22
2023-02-19T01:38:45.820Z,3.45
2023-02-19T01:41:15.658Z,3.45
2023-02-19T01:44:02.202Z,3.45
2023-02-19T01:46:30.245Z,3.38
2023-02-19T01:49:02.567Z,3.40
2023-02-19T01:51:29.296Z,3.92
2023-02-19T01:53:57.454Z,3.38
2023-02-19T01:56:24.110Z,3.33
2023-02-19T01:58:50.791Z,3.33
2023-02-19T02:01:17.465Z,3.45
2023-02-19T02:03:45.458Z,2.95
2023-02-19T02:06:26.141Z,3.75
2023-02-19T02:09:15.294Z,2.70
2023-02-19T02:11:45.593Z,3.30
2023-02-19T02:14:12.334Z,4.72
2023-02-19T02:17:07.993Z,4.53
2023-02-19T02:20:02.264Z,3.63
2023-02-19T02:22:38.405Z,3.40
2023-02-19T02:25:30.284Z,2.75
2023-02-19T02:28:02.316Z,3.40
2023-02-19T02:30:41.877Z,3.50
2023-02-19T02:33:22.217Z,3.00
2023-02-19T02:36:17.177Z,3.08
2023-02-19T02:38:45.131Z,3.58
2023-02-19T02:41:12.979Z,3.15
2023-02-19T02:43:39.821Z,3.20
2023-02-19T02:46:06.644Z,3.63
2023-02-19T02:48:44.936Z,3.08
2023-02-19T02:51:19.415Z,2.78
2023-02-19T02:54:28.266Z,3.10
2023-02-19T02:56:54.963Z,3.35
2023-02-19T02:59:26.110Z,3.08
2023-02-19T03:02:11.478Z,3.38
2023-02-19T03:05:03.374Z,3.47
2023-02-19T03:07:44.311Z,3.03
2023-02-19T03:10:13.659Z,3.22
2023-02-19T03:12:59.216Z,3.28
2023-02-19T03:15:46.953Z,2.92
2023-02-19T03:18:32.323Z,2.75
2023-02-19T03:20:59.408Z,2.60
2023-02-19T03:23:47.709Z,3.08
2023-02-19T03:26:14.466Z,4.28
2023-02-19T03:29:00.490Z,2.88
2023-02-19T03:31:28.374Z,2.90
2023-02-19T03:33:57.624Z,3.88
2023-02-19T03:36:26.856Z,3.00
2023-02-19T03:38:59.924Z,2.17
2023-02-19T03:41:42.264Z,2.90
2023-02-19T03:44:59.568Z,3.13
2023-02-19T03:47:33.833Z,2.13
2023-02-19T03:50:06.907Z,2.92
2023-02-19T03:52:42.249Z,2.83
2023-02-19T03:55:31.998Z,2.65
2023-02-19T03:58:04.453Z,2.40
2023-02-19T04:00:45.232Z,3.08
2023-02-19T04:03:19.110Z,3.92
2023-02-19T04:05:48.876Z,2.03
2023-02-19T04:08:17.817Z,4.05
2023-02-19T04:10:45.519Z,2.60
2023-02-19T04:13:18.516Z,2.13
2023-02-19T04:15:45.280Z,4.85
2023-02-19T04:18:18.019Z,3.03
2023-02-19T04:20:45.468Z,2.63
2023-02-19T04:23:12.840Z,2.33
2023-02-19T04:25:40.212Z,2.50
2023-02-19T04:28:08.284Z,2.03
2023-02-19T04:30:35.051Z,1.80
2023-02-19T04:33:01.908Z,2.97
2023-02-19T04:35:28.674Z,2.22
2023-02-19T04:37:55.951Z,4.07
2023-02-19T04:40:22.630Z,2.25
2023-02-19T04:42:49.300Z,2.47
2023-02-19T04:45:16.086Z,2.63
2023-02-19T04:47:42.991Z,2.70
2023-02-19T04:50:09.735Z,2.03
2023-02-19T04:52:36.531Z,2.53
2023-02-19T04:55:03.284Z,2.00
2023-02-19T04:57:29.939Z,2.00
2023-02-19T04:59:56.603Z,2.30
2023-02-19T05:02:23.303Z,3.03
2023-02-19T05:04:50.105Z,2.38
2023-02-19T05:07:16.819Z,2.22
2023-02-19T05:09:43.476Z,1.75
2023-02-19T05:12:10.125Z,2.50
2023-02-19T05:14:36.797Z,3.88
2023-02-19T05:17:03.483Z,1.92
2023-02-19T05:19:30.267Z,1.80
2023-02-19T05:21:57.043Z,2.33
2023-02-19T05:24:24.427Z,2.78
2023-02-19T05:26:51.297Z,1.95
2023-02-19T05:29:18.040Z,2.40
2023-02-19T05:31:44.761Z,1.80
2023-02-19T05:34:11.611Z,1.70
2023-02-19T05:36:38.902Z,1.92
2023-02-19T05:39:07.320Z,1.38
2023-02-19T05:41:34.023Z,4.35
2023-02-19T05:44:00.740Z,1.75
2023-02-19T05:46:29.653Z,2.65
2023-02-19T05:48:56.829Z,1.52
2023-02-19T05:51:24.289Z,1.80
2023-02-19T05:53:51.247Z,1.52
2023-02-19T05:56:24.496Z,1.83
2023-02-19T05:58:51.262Z,1.55
2023-02-19T06:01:18.433Z,2.55
2023-02-19T06:03:45.228Z,2.10
2023-02-19T06:06:15.896Z,1.95
2023-02-19T06:08:42.646Z,1.85
2023-02-19T06:11:09.707Z,1.52
2023-02-19T06:13:36.545Z,2.60
2023-02-19T06:16:06.877Z,1.33
2023-02-19T06:18:33.881Z,1.40
2023-02-19T06:21:02.031Z,1.98
2023-02-19T06:23:29.564Z,2.42
2023-02-19T06:26:05.078Z,1.63
2023-02-19T06:28:31.734Z,1.48
2023-02-19T06:30:58.972Z,1.52
2023-02-19T06:33:27.401Z,1.90
2023-02-19T06:35:54.445Z,1.70
2023-02-19T06:38:21.882Z,1.90
2023-02-19T06:40:48.597Z,1.65
2023-02-19T06:43:15.276Z,1.52
2023-02-19T06:45:41.950Z,1.48
2023-02-19T06:48:08.697Z,1.92
2023-02-19T06:50:35.377Z,1.85
2023-02-19T06:53:02.275Z,2.05
2023-02-19T06:55:29.027Z,2.10
2023-02-19T06:57:55.732Z,1.85
2023-02-19T07:00:22.571Z,1.77
2023-02-19T07:02:49.865Z,1.50
2023-02-19T07:05:16.569Z,2.13
2023-02-19T07:07:45.854Z,1.83
2023-02-19T07:10:12.967Z,1.70
2023-02-19T07:12:39.690Z,1.83
2023-02-19T07:15:06.667Z,1.45
2023-02-19T07:17:34.728Z,1.70
2023-02-19T07:20:01.434Z,1.40
2023-02-19T07:22:28.159Z,1.52
2023-02-19T07:24:54.969Z,2.13
2023-02-19T07:27:21.669Z,1.95
2023-02-19T07:29:48.365Z,1.83
2023-02-19T07:32:15.022Z,1.20
2023-02-19T07:34:41.704Z,1.88
2023-02-19T07:37:08.633Z,1.80
2023-02-19T07:39:35.364Z,1.95
2023-02-19T07:42:02.025Z,1.52
2023-02-19T07:44:28.735Z,2.45
2023-02-19T07:46:55.416Z,1.95
2023-02-19T07:49:22.111Z,2.83
2023-02-19T07:51:48.841Z,2.08
2023-02-19T07:54:15.535Z,1.67
2023-02-19T07:56:42.396Z,2.67
2023-02-19T07:59:09.086Z,1.83
2023-02-19T08:01:54.611Z,1.55
2023-02-19T08:04:21.360Z,1.42
2023-02-19T08:06:48.033Z,1.50
2023-02-19T08:09:14.707Z,1.40
2023-02-19T08:12:00.209Z,1.70
2023-02-19T08:14:27.461Z,1.58
2023-02-19T08:16:54.313Z,1.08
2023-02-19T08:19:21.185Z,2.40
2023-02-19T08:21:48.046Z,1.73
2023-02-19T08:24:14.749Z,1.30
2023-02-19T08:26:41.495Z,1.77
2023-02-19T08:29:08.208Z,4.20
2023-02-19T08:31:35.158Z,1.73
2023-02-19T08:34:01.990Z,2.95
2023-02-19T08:36:28.861Z,1.70
2023-02-19T08:38:55.590Z,1.50
2023-02-19T08:41:22.373Z,1.95
2023-02-19T08:43:49.141Z,1.42
2023-02-19T08:46:15.956Z,1.92
2023-02-19T08:48:42.695Z,2.35
2023-02-19T08:51:10.662Z,2.00
2023-02-19T08:53:38.450Z,1.55
2023-02-19T08:56:15.527Z,1.35
2023-02-19T08:58:42.408Z,1.27
2023-02-19T09:01:14.763Z,1.52
2023-02-19T09:03:41.719Z,1.85
2023-02-19T09:06:11.026Z,1.95
2023-02-19T09:08:37.866Z,1.58
2023-02-19T09:11:06.978Z,2.35
2023-02-19T09:13:33.690Z,1.63
2023-02-19T09:16:00.445Z,1.73
2023-02-19T09:18:27.341Z,2.40
2023-02-19T09:20:54.082Z,1.38
2023-02-19T09:23:20.782Z,1.70
2023-02-19T09:25:47.501Z,1.88
2023-02-19T09:28:14.234Z,1.67
2023-02-19T09:30:41.061Z,1.80
2023-02-19T09:33:07.804Z,2.17
2023-02-19T09:35:34.488Z,2.05
2023-02-19T09:38:02.019Z,1.58
2023-02-19T09:40:29.856Z,1.30
2023-02-19T09:42:56.576Z,1.13
2023-02-19T09:45:24.262Z,1.20
2023-02-19T09:47:54.203Z,1.30
2023-02-19T09:50:22.899Z,1.45
2023-02-19T09:52:57.602Z,1.55
2023-02-19T09:55:32.026Z,1.40
2023-02-19T09:57:59.566Z,1.20
2023-02-19T10:00:27.818Z,1.35
2023-02-19T10:02:57.903Z,1.48
2023-02-19T10:05:24.949Z,2.55
2023-02-19T10:07:53.020Z,1.95
2023-02-19T10:10:29.370Z,2.17
2023-02-19T10:13:00.104Z,1.77
2023-02-19T10:15:38.681Z,2.30
2023-02-19T10:18:05.652Z,1.80
2023-02-19T10:20:32.385Z,1.05
2023-02-19T10:23:03.738Z,1.83
2023-02-19T10:25:30.913Z,1.42
2023-02-19T10:28:01.270Z,1.50
2023-02-19T10:30:37.394Z,1.95
2023-02-19T10:33:10.938Z,2.33
2023-02-19T10:35:57.543Z,3.88
2023-02-19T10:38:28.207Z,2.85
2023-02-19T10:40:59.920Z,1.50
2023-02-19T10:43:33.099Z,1.35
2023-02-19T10:46:26.267Z,1.13
2023-02-19T10:49:20.424Z,1.35
2023-02-19T10:51:47.862Z,1.63
2023-02-19T10:54:24.345Z,1.60
2023-02-19T10:56:51.012Z,0.75
2023-02-19T10:59:25.729Z,2.22
2023-02-19T11:01:59.016Z,1.02
2023-02-19T11:04:27.159Z,2.78
2023-02-19T11:06:54.128Z,1.67
2023-02-19T11:09:40.490Z,0.88
2023-02-19T11:12:08.510Z,1.27
2023-02-19T11:14:36.341Z,1.23
2023-02-19T11:17:06.628Z,1.55
2023-02-19T11:19:40.000Z,1.42
2023-02-19T11:22:32.808Z,1.08
2023-02-19T11:25:06.542Z,1.20
2023-02-19T11:27:33.592Z,1.85
2023-02-19T11:30:33.976Z,1.52
2023-02-19T11:33:19.705Z,1.38
2023-02-19T11:35:54.230Z,1.38
2023-02-19T11:38:21.850Z,1.33
2023-02-19T11:41:11.375Z,1.40
2023-02-19T11:44:07.735Z,1.30
2023-02-19T11:46:46.853Z,1.33
2023-02-19T11:49:41.224Z,1.40
2023-02-19T11:52:23.997Z,1.27
2023-02-19T11:55:18.022Z,1.42
2023-02-19T11:57:54.975Z,1.52
2023-02-19T12:00:29.187Z,2.85
2023-02-19T12:03:15.572Z,1.63
2023-02-19T12:05:42.257Z,1.30
2023-02-19T12:08:29.776Z,1.20
2023-02-19T12:11:27.316Z,1.52
2023-02-19T12:14:31.778Z,1.35
2023-02-19T12:17:19.840Z,1.10
2023-02-19T12:19:57.003Z,1.08
2023-02-19T12:22:33.610Z,1.10
2023-02-19T12:25:25.284Z,1.50
2023-02-19T12:27:54.947Z,1.10
2023-02-19T12:30:58.717Z,0.73
2023-02-19T12:33:33.788Z,0.88
2023-02-19T12:36:03.052Z,1.35
2023-02-19T12:38:37.063Z,0.90
2023-02-19T12:43:30.399Z,1.17
2023-02-19T12:46:03.003Z,0.85
2023-02-19T12:48:38.716Z,2.42
2023-02-19T12:51:06.715Z,1.00
2023-02-19T12:53:44.831Z,1.25
2023-02-19T12:56:48.374Z,1.02
2023-02-19T12:59:24.641Z,0.98
2023-02-19T13:01:59.169Z,0.70
2023-02-19T13:04:53.717Z,1.17
2023-02-19T13:10:00.773Z,0.98
2023-02-19T13:12:30.499Z,1.77
2023-02-19T13:14:59.000Z,2.10
2023-02-19T13:17:41.489Z,1.40
2023-02-19T13:20:32.691Z,1.05
2023-02-19T13:23:50.258Z,1.20
2023-02-19T13:26:29.719Z,0.90
2023-02-19T13:29:16.690Z,1.13
2023-02-19T13:32:01.638Z,1.00
2023-02-19T13:34:58.792Z,2.60
2023-02-19T13:37:25.489Z,0.98
2023-02-19T13:39:53.237Z,1.02
2023-02-19T13:42:27.692Z,1.48
2023-02-19T13:44:57.971Z,1.60
2023-02-19T13:47:59.756Z,0.93
2023-02-19T13:50:31.177Z,1.17
2023-02-19T13:52:59.120Z,2.35
2023-02-19T13:55:46.543Z,0.88
2023-02-19T13:58:35.912Z,1.38
2023-02-19T14:01:12.508Z,0.80
2023-02-19T14:03:40.627Z,1.10
2023-02-19T14:06:08.525Z,1.02
2023-02-19T14:08:57.216Z,1.30
2023-02-19T14:11:42.384Z,1.15
2023-02-19T14:14:24.002Z,0.82
2023-02-19T14:16:52.889Z,0.95
2023-02-19T14:19:42.626Z,1.15
2023-02-19T14:23:01.574Z,1.10
2023-02-19T14:25:28.688Z,1.05
2023-02-19T14:28:18.016Z,1.33
2023-02-19T14:31:11.334Z,1.10
2023-02-19T14:33:46.128Z,1.10
2023-02-19T14:36:54.302Z,1.00
2023-02-19T14:39:24.472Z,1.70
2023-02-19T14:41:52.485Z,0.90
2023-02-19T14:44:24.954Z,1.65
2023-02-19T14:46:54.831Z,2.05
2023-02-19T14:49:26.161Z,1.58
2023-02-19T14:51:56.144Z,1.40
2023-02-19T14:54:44.248Z,2.60
2023-02-19T14:57:20.553Z,1.25
2023-02-19T14:59:55.525Z,2.85
2023-02-19T15:02:23.953Z,1.15
2023-02-19T15:04:50.706Z,1.73
2023-02-19T15:07:31.880Z,1.30
2023-02-19T15:10:05.394Z,1.25
2023-02-19T15:15:21.250Z,1.10
2023-02-19T15:17:47.952Z,1.17
2023-02-19T15:20:25.602Z,2.35
2023-02-19T15:22:53.110Z,1.60
2023-02-19T15:25:23.995Z,1.65
2023-02-19T15:27:50.673Z,2.08
2023-02-19T15:30:29.308Z,1.95
2023-02-19T15:32:57.536Z,1.92
2023-02-19T15:35:25.201Z,1.65
2023-02-19T15:37:52.260Z,1.90
2023-02-19T15:40:19.793Z,1.40
2023-02-19T15:42:46.882Z,2.03
2023-02-19T15:45:43.005Z,1.67
2023-02-19T15:48:18.485Z,1.83
2023-02-19T15:50:50.475Z,1.42
2023-02-19T15:53:22.107Z,1.52
2023-02-19T15:56:02.778Z,2.10
2023-02-19T15:58:40.533Z,1.58
2023-02-19T16:01:20.092Z,2.20
2023-02-19T16:03:46.910Z,6.22
2023-02-19T16:06:17.881Z,3.40
2023-02-19T16:09:05.676Z,4.47
2023-02-19T16:11:36.274Z,3.60
2023-02-19T16:14:19.230Z,3.10
2023-02-19T16:16:46.721Z,2.47
2023-02-19T16:19:13.450Z,5.57
2023-02-19T16:21:42.454Z,5.10
2023-02-19T16:24:31.248Z,2.97
2023-02-19T16:27:04.120Z,3.42
2023-02-19T16:29:33.125Z,2.25
2023-02-19T16:32:10.554Z,2.83
2023-02-19T16:34:46.792Z,2.55
2023-02-19T16:37:35.491Z,2.28
2023-02-19T16:40:08.355Z,2.30
2023-02-19T16:42:57.543Z,2.20
2023-02-19T16:45:26.516Z,2.40
2023-02-19T16:47:54.214Z,2.53
2023-02-19T16:50:26.754Z,2.17
2023-02-19T16:52:57.800Z,2.17
2023-02-19T16:55:25.077Z,1.70
2023-02-19T16:57:51.906Z,1.75
2023-02-19T17:00:26.961Z,2.13
2023-02-19T17:03:02.498Z,2.55
2023-02-19T17:05:29.634Z,1.85
2023-02-19T17:07:56.624Z,2.60
2023-02-19T17:10:24.778Z,4.93
2023-02-19T17:12:52.264Z,4.72
2023-02-19T17:15:19.065Z,4.15
2023-02-19T17:17:45.838Z,6.13
2023-02-19T17:20:27.570Z,4.32
2023-02-19T17:22:55.277Z,2.78
2023-02-19T17:25:22.181Z,2.15
2023-02-19T17:27:49.030Z,2.00
2023-02-19T17:30:19.102Z,3.47
2023-02-19T17:32:45.749Z,2.47
2023-02-19T17:35:13.614Z,3.80
2023-02-19T17:37:40.424Z,4.13
2023-02-19T17:40:33.388Z,3.80
2023-02-19T17:43:01.087Z,2.90
2023-02-19T17:45:27.834Z,2.88
2023-02-19T17:47:54.605Z,2.20
2023-02-19T17:50:23.243Z,2.45
2023-02-19T17:52:50.004Z,2.42
2023-02-19T17:55:18.396Z,3.55
2023-02-19T17:57:48.755Z,2.60
2023-02-19T18:00:17.026Z,3.08
2023-02-19T18:02:43.793Z,2.53
2023-02-19T18:05:10.503Z,1.92
2023-02-19T18:07:38.423Z,2.53
2023-02-19T18:10:05.980Z,3.53
2023-02-19T18:12:32.654Z,3.22
2023-02-19T18:14:59.364Z,4.20
2023-02-19T18:17:26.298Z,3.58
2023-02-19T18:19:53.330Z,3.25
2023-02-19T18:22:20.199Z,3.03
2023-02-19T18:24:48.076Z,3.13
2023-02-19T18:27:15.000Z,3.30
2023-02-19T18:29:41.795Z,3.25
2023-02-19T18:32:08.640Z,3.50
2023-02-19T18:34:35.403Z,3.38
2023-02-19T18:37:02.163Z,5.15
2023-02-19T18:39:28.854Z,4.50
2023-02-19T18:41:57.753Z,4.55
2023-02-19T18:44:25.153Z,4.10
2023-02-19T18:46:52.179Z,3.80
2023-02-19T18:49:19.071Z,3.40
2023-02-19T18:51:46.970Z,3.60
2023-02-19T18:54:13.745Z,3.50
2023-02-19T18:56:43.945Z,3.45
2023-02-19T18:59:10.726Z,5.60
2023-02-19T19:01:37.522Z,3.95
2023-02-19T19:04:04.603Z,3.80
2023-02-19T19:06:31.443Z,5.10
2023-02-19T19:08:58.528Z,4.35
2023-02-19T19:11:25.814Z,4.15
2023-02-19T19:13:52.749Z,4.25
2023-02-19T19:16:23.188Z,3.47
2023-02-19T19:18:49.970Z,4.22
2023-02-19T19:21:16.936Z,4.45
2023-02-19T19:23:43.680Z,4.35
2023-02-19T19:26:11.372Z,4.05
2023-02-19T19:28:44.169Z,5.35
2023-02-19T19:31:15.045Z,3.53
2023-02-19T19:33:42.272Z,2.97
2023-02-19T19:36:09.527Z,2.83
2023-02-19T19:38:36.274Z,3.13
2023-02-19T19:41:04.044Z,4.32
2023-02-19T19:43:31.366Z,4.03
2023-02-19T19:45:58.337Z,5.10
2023-02-19T19:48:27.490Z,4.57
2023-02-19T19:50:54.579Z,4.60
2023-02-19T19:53:21.432Z,3.67
2023-02-19T19:55:48.131Z,3.55
2023-02-19T19:58:16.732Z,4.65
2023-02-19T20:00:43.461Z,4.20
2023-02-19T20:03:10.220Z,4.65
2023-02-19T20:05:36.987Z,5.13
2023-02-19T20:08:03.847Z,5.25
2023-02-19T20:10:30.594Z,4.60
2023-02-19T20:12:57.298Z,4.93
2023-02-19T20:15:24.034Z,4.10
2023-02-19T20:17:50.723Z,4.93
2023-02-19T20:20:18.897Z,4.18
2023-02-19T20:22:46.116Z,5.38
2023-02-19T20:25:13.072Z,5.35
2023-02-19T20:27:40.028Z,4.80
2023-02-19T20:30:08.783Z,5.55
2023-02-19T20:32:37.008Z,6.32
2023-02-19T20:35:03.763Z,4.88
2023-02-19T20:37:30.516Z,5.35
2023-02-19T20:39:57.310Z,6.63
2023-02-19T20:42:23.965Z,4.75
2023-02-19T20:44:50.907Z,4.45
2023-02-19T20:47:17.846Z,4.50
2023-02-19T20:49:46.090Z,4.63
2023-02-19T20:52:14.451Z,3.70
2023-02-19T20:54:42.708Z,3.65
2023-02-19T20:57:09.544Z,4.07
2023-02-19T20:59:36.265Z,3.58
2023-02-19T21:02:06.984Z,4.00
2023-02-19T21:04:33.711Z,6.15
2023-02-19T21:07:00.445Z,3.75
2023-02-19T21:09:27.169Z,3.72
2023-02-19T21:11:54.409Z,4.05
2023-02-19T21:14:21.174Z,3.67
2023-02-19T21:16:47.840Z,3.72
2023-02-19T21:19:14.663Z,3.35
2023-02-19T21:21:41.467Z,3.13
2023-02-19T21:24:09.243Z,3.58
2023-02-19T21:26:37.279Z,3.75
2023-02-19T21:29:05.470Z,3.53
2023-02-19T21:31:40.274Z,3.42
2023-02-19T21:34:08.183Z,3.50
2023-02-19T21:36:38.186Z,3.67
2023-02-19T21:39:05.542Z,3.67
2023-02-19T21:41:34.618Z,3.20
2023-02-19T21:44:01.433Z,3.05
2023-02-19T21:46:30.097Z,2.85
2023-02-19T21:48:56.951Z,2.85
2023-02-19T21:51:29.194Z,3.67
2023-02-19T21:53:56.207Z,2.15
2023-02-19T21:56:23.922Z,3.00
2023-02-19T21:58:54.046Z,2.45
2023-02-19T22:01:39.238Z,3.05
2023-02-19T22:04:07.117Z,2.55
2023-02-19T22:06:36.121Z,2.20
2023-02-19T22:09:05.168Z,2.60
2023-02-19T22:11:34.907Z,3.08
2023-02-19T22:14:03.361Z,2.85
2023-02-19T22:16:31.313Z,2.38
2023-02-19T22:18:58.810Z,2.55
2023-02-19T22:21:27.421Z,3.60
2023-02-19T22:23:54.363Z,2.53
2023-02-19T22:26:28.419Z,2.63
2023-02-19T22:31:22.811Z,2.92
2023-02-19T22:33:50.968Z,3.10
2023-02-19T22:36:28.323Z,2.70
2023-02-19T22:38:55.247Z,2.55
2023-02-19T22:41:22.098Z,2.35
2023-02-19T22:43:48.890Z,2.40
2023-02-19T22:46:18.850Z,2.30
2023-02-19T22:48:45.996Z,4.60
2023-02-19T22:51:13.826Z,2.58
2023-02-19T22:53:47.170Z,2.60
2023-02-19T22:56:17.021Z,2.72
2023-02-19T22:58:43.736Z,3.13
2023-02-19T23:01:11.323Z,2.08
2023-02-19T23:03:47.842Z,2.90
2023-02-19T23:06:15.068Z,2.60
2023-02-19T23:08:42.888Z,2.55
2023-02-19T23:11:13.511Z,2.75
2023-02-19T23:13:43.009Z,2.30
2023-02-19T23:16:09.942Z,3.58
2023-02-19T23:18:36.840Z,3.15
2023-02-19T23:21:03.557Z,2.63
2023-02-19T23:23:30.240Z,2.45
2023-02-19T23:25:56.943Z,2.60
2023-02-19T23:28:24.393Z,2.67
2023-02-19T23:30:51.136Z,2.15
2023-02-19T23:33:17.952Z,2.70
2023-02-19T23:35:44.679Z,2.17
2023-02-19T23:38:11.802Z,2.50
2023-02-19T23:40:38.648Z,2.42
2023-02-19T23:43:05.336Z,2.67
2023-02-19T23:45:32.038Z,2.20
2023-02-19T23:47:58.765Z,2.85
2023-02-19T23:50:27.973Z,2.50
2023-02-19T23:52:56.785Z,2.05
2023-02-19T23:55:23.529Z,2.00
2023-02-19T23:57:55.281Z,2.17
